Weather at Austin Air Ranch Airport

Public forecast

Using degrees Fahrenheit for public forecast. Weather courtesy of forecast.io.

Closest aviation weather report (METAR) to Austin Air Ranch Airport

Closest report is Lago Vista Texas Rusty Allen Airport, 8.0 nm (14.8 km) E.

2024/05/28 13:35 (retrieved 58 minutes ago)

KRYW 281335Z AUTO 20004KT 3SM BR OVC006 26/25 A2999 RMK AO2 T02550247

Closest aviation forecast (TAF) to Austin Air Ranch Airport

Closest forecast is Austin Bergstrom International Airport, 29.0 nm (53.7 km) SE.

2024/05/28 14:03 Ammendment (retrieved 30 minutes ago)

TAF AMD KAUS 281401Z 2814/2918 15011KT P6SM BKN011 FM281500 16010KT P6SM BKN020 FM281600 11014G24KT P6SM SCT050 SCT250 FM290200 VRB10G20KT 3SM TSRA BR OVC015CB FM290500 VRB10G20KT 3SM TSRA BR OVC007CB FM290900 VRB06KT 6SM BR OVC007 PROB30 2909/2912 4SM -TSRA BR BKN007CB FM291200 VRB06KT 6SM BR BKN015 FM291600 10008KT P6SM BKN025